createdAt,value
2023-04-16T00:00:39.972Z,98039.25
2023-04-16T00:01:42.011Z,98046.19
2023-04-16T00:02:44.917Z,98043.59
2023-04-16T00:03:47.079Z,98049.69
2023-04-16T00:04:50.507Z,98039.38
2023-04-16T00:05:55.795Z,98040.31
2023-04-16T00:06:58.748Z,98041.25
2023-04-16T00:08:00.756Z,98037.09
2023-04-16T00:09:04.933Z,98039.69
2023-04-16T00:10:08.045Z,98043.31
2023-04-16T00:11:11.120Z,98042.56
2023-04-16T00:12:12.920Z,98036.81
2023-04-16T00:13:15.632Z,98041.97
2023-04-16T00:14:17.682Z,98039.56
2023-04-16T00:15:20.419Z,98032.88
2023-04-16T00:16:25.546Z,98034.84
2023-04-16T00:17:28.639Z,98039.34
2023-04-16T00:18:30.899Z,98041.31
2023-04-16T00:19:33.666Z,98043.19
2023-04-16T00:20:35.515Z,98036.56
2023-04-16T00:21:38.376Z,98045.25
2023-04-16T00:22:40.290Z,98040.19
2023-04-16T00:23:43.179Z,98038.72
2023-04-16T00:24:46.314Z,98041.41
2023-04-16T00:25:49.091Z,98036.34
2023-04-16T00:26:51.151Z,98033.22
2023-04-16T00:27:53.915Z,98037.78
2023-04-16T00:28:55.704Z,98037.97
2023-04-16T00:29:58.608Z,98042.31
2023-04-16T00:31:01.446Z,98034.69
2023-04-16T00:32:06.241Z,98039.91
2023-04-16T00:33:08.299Z,98035.81
2023-04-16T00:34:11.373Z,98040.44
2023-04-16T00:35:13.559Z,98032.16
2023-04-16T00:36:16.367Z,98032.28
2023-04-16T00:37:18.185Z,98041.84
2023-04-16T00:38:20.974Z,98047.22
2023-04-16T00:39:26.252Z,98040.47
2023-04-16T00:40:30.824Z,98042.47
2023-04-16T00:41:32.863Z,98043.47
2023-04-16T00:42:37.251Z,98048.63
2023-04-16T00:43:39.108Z,98046.16
2023-04-16T00:44:41.860Z,98041.91
2023-04-16T00:45:44.053Z,98042.81
2023-04-16T00:46:47.322Z,98056.66
2023-04-16T00:47:49.711Z,98051.50
2023-04-16T00:48:54.531Z,98049.72
2023-04-16T00:49:56.296Z,98045.41
2023-04-16T00:51:01.043Z,98051.50
2023-04-16T00:52:03.394Z,98061.09
2023-04-16T00:53:06.540Z,98048.59
2023-04-16T00:54:08.424Z,98060.09
2023-04-16T00:55:13.390Z,98063.97
2023-04-16T00:56:17.760Z,98062.50
2023-04-16T00:57:23.843Z,98066.84
2023-04-16T00:58:26.513Z,98066.94
2023-04-16T00:59:30.078Z,98063.53
2023-04-16T01:00:31.908Z,98062.72
2023-04-16T01:01:34.867Z,98061.91
2023-04-16T01:02:36.950Z,98060.22
2023-04-16T01:03:41.168Z,98059.38
2023-04-16T01:04:43.391Z,98064.66
2023-04-16T01:05:49.230Z,98067.22
2023-04-16T01:06:51.237Z,98064.75
2023-04-16T01:07:54.148Z,98066.59
2023-04-16T01:08:55.988Z,98066.59
2023-04-16T01:09:58.776Z,98064.09
2023-04-16T01:11:00.747Z,98070.09
2023-04-16T01:12:05.030Z,98070.28
2023-04-16T01:13:06.831Z,98072.31
2023-04-16T01:14:09.730Z,98070.84
2023-04-16T01:15:11.901Z,98073.59
2023-04-16T01:16:14.749Z,98074.53
2023-04-16T01:17:16.881Z,98080.69
2023-04-16T01:18:20.540Z,98078.09
2023-04-16T01:19:22.365Z,98079.84
2023-04-16T01:20:25.581Z,98072.06
2023-04-16T01:21:28.819Z,98071.22
2023-04-16T01:22:31.589Z,98085.00
2023-04-16T01:23:34.252Z,98076.47
2023-04-16T01:24:39.947Z,98077.28
2023-04-16T01:25:45.391Z,98076.47
2023-04-16T01:26:48.229Z,98075.72
2023-04-16T01:27:50.735Z,98068.94
2023-04-16T01:28:53.495Z,98077.59
2023-04-16T01:29:56.363Z,98073.53
2023-04-16T01:31:08.753Z,98078.88
2023-04-16T01:32:32.996Z,98085.22
2023-04-16T01:33:34.834Z,98077.75
2023-04-16T01:34:37.630Z,98078.03
2023-04-16T01:35:40.988Z,98074.84
2023-04-16T01:36:45.153Z,98078.41
2023-04-16T01:37:46.977Z,98084.59
2023-04-16T01:38:50.202Z,98080.44
2023-04-16T01:39:52.478Z,98077.84
2023-04-16T01:40:57.521Z,98082.19
2023-04-16T01:41:59.408Z,98092.47
2023-04-16T01:43:02.409Z,98081.34
2023-04-16T01:44:04.615Z,98085.56
2023-04-16T01:45:08.622Z,98088.88
2023-04-16T01:46:16.370Z,98095.69
2023-04-16T01:47:19.346Z,98099.81
2023-04-16T01:48:21.158Z,98097.34
2023-04-16T01:49:24.591Z,98099.81
2023-04-16T01:50:26.595Z,98098.34
2023-04-16T01:51:29.669Z,98101.13
2023-04-16T01:52:33.148Z,98100.38
2023-04-16T01:53:37.116Z,98098.72
2023-04-16T01:54:39.194Z,98097.06
2023-04-16T01:55:42.406Z,98100.47
2023-04-16T01:56:44.384Z,98106.44
2023-04-16T01:57:47.261Z,98105.50
2023-04-16T01:58:49.966Z,98102.13
2023-04-16T01:59:54.423Z,98101.22
2023-04-16T02:00:57.047Z,98111.41
2023-04-16T02:02:02.126Z,98118.13
2023-04-16T02:03:04.229Z,98105.06
2023-04-16T02:04:08.203Z,98110.13
2023-04-16T02:05:10.147Z,98111.72
2023-04-16T02:06:12.993Z,98111.59
2023-04-16T02:07:14.878Z,98110.69
2023-04-16T02:08:19.199Z,98107.19
2023-04-16T02:09:22.201Z,98108.88
2023-04-16T02:10:25.065Z,98112.25
2023-04-16T02:11:27.211Z,98111.50
2023-04-16T02:12:31.339Z,98111.59
2023-04-16T02:13:33.218Z,98109.97
2023-04-16T02:14:36.403Z,98111.59
2023-04-16T02:15:38.233Z,98113.34
2023-04-16T02:16:41.093Z,98109.97
2023-04-16T02:18:10.254Z,98114.28
2023-04-16T02:19:13.312Z,98113.25
2023-04-16T02:20:18.134Z,98119.22
2023-04-16T02:21:28.874Z,98120.06
2023-04-16T02:22:30.998Z,98112.25
2023-04-16T02:23:35.257Z,98118.13
2023-04-16T02:24:37.114Z,98124.13
2023-04-16T02:25:45.305Z,98117.16
2023-04-16T02:26:48.086Z,98114.47
2023-04-16T02:27:53.556Z,98123.03
2023-04-16T02:29:09.973Z,98117.78
2023-04-16T02:30:18.648Z,98116.94
2023-04-16T02:31:22.330Z,98125.50
2023-04-16T02:32:25.356Z,98118.78
2023-04-16T02:33:27.985Z,98115.41
2023-04-16T02:34:36.165Z,98120.63
2023-04-16T02:35:39.107Z,98113.09
2023-04-16T02:36:42.269Z,98121.81
2023-04-16T02:37:44.672Z,98119.34
2023-04-16T02:38:48.959Z,98111.72
2023-04-16T02:39:51.512Z,98112.59
2023-04-16T02:40:54.322Z,98113.63
2023-04-16T02:41:56.162Z,98115.47
2023-04-16T02:42:59.483Z,98117.28
2023-04-16T02:44:01.983Z,98113.78
2023-04-16T02:45:05.033Z,98111.06
2023-04-16T02:46:06.989Z,98111.72
2023-04-16T02:47:09.800Z,98114.09
2023-04-16T02:48:11.604Z,98116.59
2023-04-16T02:49:14.435Z,98120.72
2023-04-16T02:50:16.302Z,98123.19
2023-04-16T02:51:19.105Z,98123.28
2023-04-16T02:52:21.364Z,98121.63
2023-04-16T02:53:24.190Z,98121.75
2023-04-16T02:54:27.351Z,98127.63
2023-04-16T02:55:30.468Z,98124.88
2023-04-16T02:56:32.278Z,98123.13
2023-04-16T02:57:35.351Z,98125.50
2023-04-16T02:58:37.245Z,98123.56
2023-04-16T02:59:40.123Z,98128.63
2023-04-16T03:00:42.355Z,98124.13
2023-04-16T03:01:45.798Z,98126.44
2023-04-16T03:02:47.844Z,98126.22
2023-04-16T03:03:50.778Z,98128.53
2023-04-16T03:04:52.696Z,98130.19
2023-04-16T03:05:55.668Z,98128.72
2023-04-16T03:06:57.535Z,98133.34
2023-04-16T03:08:00.380Z,98133.50
2023-04-16T03:09:02.307Z,98132.59
2023-04-16T03:10:08.262Z,98139.41
2023-04-16T03:11:10.267Z,98141.88
2023-04-16T03:12:13.201Z,98137.34
2023-04-16T03:13:15.325Z,98130.19
2023-04-16T03:14:20.867Z,98140.22
2023-04-16T03:15:22.992Z,98145.84
2023-04-16T03:16:26.079Z,98145.56
2023-04-16T03:17:28.398Z,98148.59
2023-04-16T03:18:32.013Z,98148.31
2023-04-16T03:19:33.865Z,98146.28
2023-04-16T03:20:36.704Z,98146.91
2023-04-16T03:21:38.544Z,98157.03
2023-04-16T03:22:41.378Z,98153.38
2023-04-16T03:23:43.242Z,98159.25
2023-04-16T03:24:46.065Z,98155.66
2023-04-16T03:25:49.247Z,98164.13
2023-04-16T03:26:54.406Z,98164.94
2023-04-16T03:27:58.748Z,98163.94
2023-04-16T03:29:02.090Z,98169.72
2023-04-16T03:30:07.185Z,98168.72
2023-04-16T03:31:11.496Z,98169.25
2023-04-16T03:32:13.950Z,98164.81
2023-04-16T03:33:16.817Z,98165.47
2023-04-16T03:34:18.717Z,98168.75
2023-04-16T03:35:21.975Z,98168.38
2023-04-16T03:36:25.301Z,98169.13
2023-04-16T03:37:27.192Z,98173.34
2023-04-16T03:38:29.971Z,98169.00
2023-04-16T03:39:33.897Z,98169.84
2023-04-16T03:40:36.667Z,98170.66
2023-04-16T03:41:39.801Z,98170.59
2023-04-16T03:42:42.848Z,98182.44
2023-04-16T03:43:44.783Z,98176.28
2023-04-16T03:44:47.628Z,98176.06
2023-04-16T03:45:50.948Z,98181.16
2023-04-16T03:46:57.021Z,98174.78
2023-04-16T03:47:59.089Z,98181.38
2023-04-16T03:49:02.395Z,98177.78
2023-04-16T03:50:04.803Z,98190.41
2023-04-16T03:51:07.577Z,98193.59
2023-04-16T03:52:09.536Z,98188.25
2023-04-16T03:53:12.301Z,98191.47
2023-04-16T03:54:14.651Z,98186.91
2023-04-16T03:55:21.274Z,98199.53
2023-04-16T03:56:23.136Z,98199.16
2023-04-16T03:57:29.062Z,98202.28
2023-04-16T03:58:36.517Z,98189.97
2023-04-16T03:59:39.271Z,98199.06
2023-04-16T04:00:41.721Z,98196.31
2023-04-16T04:01:48.992Z,98197.75
2023-04-16T04:02:51.098Z,98195.72
2023-04-16T04:03:56.366Z,98197.13
2023-04-16T04:04:58.655Z,98190.03
2023-04-16T04:06:01.535Z,98196.53
2023-04-16T04:07:05.517Z,98195.41
2023-04-16T04:08:08.715Z,98196.94
2023-04-16T04:09:11.733Z,98197.69
2023-04-16T04:10:14.570Z,98201.75
2023-04-16T04:11:17.523Z,98198.94
2023-04-16T04:12:20.581Z,98201.22
2023-04-16T04:13:24.380Z,98201.72
2023-04-16T04:14:28.274Z,98208.34
2023-04-16T04:15:30.234Z,98209.19
2023-04-16T04:16:33.159Z,98214.16
2023-04-16T04:17:35.421Z,98211.25
2023-04-16T04:18:38.695Z,98205.88
2023-04-16T04:19:47.133Z,98218.59
2023-04-16T04:20:54.548Z,98207.31
2023-04-16T04:22:00.136Z,98210.41
2023-04-16T04:23:02.931Z,98214.34
2023-04-16T04:24:05.460Z,98209.81
2023-04-16T04:25:10.886Z,98214.75
2023-04-16T04:26:12.746Z,98214.44
2023-04-16T04:27:16.608Z,98219.28
2023-04-16T04:28:18.453Z,98210.41
2023-04-16T04:29:22.640Z,98211.84
2023-04-16T04:30:25.424Z,98216.66
2023-04-16T04:31:28.221Z,98220.63
2023-04-16T04:32:31.289Z,98225.44
2023-04-16T04:33:34.409Z,98223.47
2023-04-16T04:34:36.639Z,98227.53
2023-04-16T04:35:39.818Z,98227.19
2023-04-16T04:36:43.843Z,98229.56
2023-04-16T04:37:48.469Z,98237.81
2023-04-16T04:38:53.837Z,98227.16
2023-04-16T04:39:57.657Z,98230.25
2023-04-16T04:40:59.761Z,98241.09
2023-04-16T04:42:05.329Z,98240.66
2023-04-16T04:43:07.288Z,98243.75
2023-04-16T04:44:10.089Z,98242.59
2023-04-16T04:45:13.594Z,98232.75
2023-04-16T04:46:17.627Z,98241.94
2023-04-16T04:47:19.639Z,98240.81
2023-04-16T04:48:26.436Z,98246.56
2023-04-16T04:49:30.536Z,98250.50
2023-04-16T04:50:33.291Z,98255.44
2023-04-16T04:51:35.894Z,98250.88
2023-04-16T04:52:39.648Z,98253.22
2023-04-16T04:53:42.496Z,98260.09
2023-04-16T04:54:45.862Z,98259.84
2023-04-16T04:55:50.899Z,98252.00
2023-04-16T04:56:56.726Z,98268.44
2023-04-16T04:57:58.554Z,98257.25
2023-04-16T04:59:02.399Z,98254.78
2023-04-16T05:00:04.788Z,98254.66
2023-04-16T05:01:17.320Z,98258.09
2023-04-16T05:02:22.706Z,98257.06
2023-04-16T05:03:25.580Z,98255.94
2023-04-16T05:04:27.421Z,98257.25
2023-04-16T05:05:30.453Z,98262.91
2023-04-16T05:06:32.289Z,98260.69
2023-04-16T05:07:35.163Z,98260.22
2023-04-16T05:08:37.053Z,98262.50
2023-04-16T05:09:39.785Z,98265.56
2023-04-16T05:10:41.604Z,98267.81
2023-04-16T05:11:44.817Z,98266.66
2023-04-16T05:12:48.928Z,98265.25
2023-04-16T05:13:52.029Z,98265.75
2023-04-16T05:14:53.838Z,98271.41
2023-04-16T05:15:56.636Z,98265.88
2023-04-16T05:16:59.817Z,98268.81
2023-04-16T05:18:02.758Z,98281.25
2023-04-16T05:19:04.993Z,98276.19
2023-04-16T05:20:09.443Z,98273.94
2023-04-16T05:21:11.363Z,98270.88
2023-04-16T05:22:14.164Z,98267.91
2023-04-16T05:23:16.018Z,98276.31
2023-04-16T05:24:18.840Z,98277.00
2023-04-16T05:25:21.008Z,98280.06
2023-04-16T05:26:23.821Z,98274.66
2023-04-16T05:27:25.856Z,98286.44
2023-04-16T05:28:28.709Z,98277.59
2023-04-16T05:29:30.620Z,98284.22
2023-04-16T05:30:33.435Z,98287.50
2023-04-16T05:31:35.236Z,98282.06
2023-04-16T05:32:40.616Z,98286.31
2023-04-16T05:33:42.747Z,98282.91
2023-04-16T05:34:45.527Z,98283.59
2023-04-16T05:35:47.298Z,98281.72
2023-04-16T05:36:50.324Z,98274.75
2023-04-16T05:37:52.129Z,98281.47
2023-04-16T05:38:54.955Z,98290.81
2023-04-16T05:39:56.847Z,98282.06
2023-04-16T05:40:59.907Z,98280.97
2023-04-16T05:42:01.769Z,98283.22
2023-04-16T05:43:04.654Z,98282.16
2023-04-16T05:44:06.493Z,98295.84
2023-04-16T05:45:10.643Z,98286.28
2023-04-16T05:46:12.577Z,98297.25
2023-04-16T05:47:15.499Z,98293.59
2023-04-16T05:48:20.080Z,98294.41
2023-04-16T05:49:23.374Z,98302.19
2023-04-16T05:50:25.429Z,98307.03
2023-04-16T05:51:28.225Z,98296.53
2023-04-16T05:52:30.180Z,98302.31
2023-04-16T05:53:33.002Z,98295.22
2023-04-16T05:54:34.820Z,98306.78
2023-04-16T05:55:37.676Z,98305.22
2023-04-16T05:56:39.439Z,98310.75
2023-04-16T05:57:42.233Z,98314.91
2023-04-16T05:58:44.530Z,98311.09
2023-04-16T05:59:47.588Z,98310.97
2023-04-16T06:00:49.405Z,98318.88
2023-04-16T06:01:52.237Z,98317.09
2023-04-16T06:02:54.171Z,98316.88
2023-04-16T06:03:58.437Z,98317.56
2023-04-16T06:05:01.381Z,98314.97
2023-04-16T06:06:03.275Z,98312.25
2023-04-16T06:07:06.200Z,98321.84
2023-04-16T06:08:08.032Z,98317.47
2023-04-16T06:09:11.744Z,98321.00
2023-04-16T06:10:13.850Z,98326.22
2023-04-16T06:11:16.946Z,98327.03
2023-04-16T06:12:18.781Z,98324.06
2023-04-16T06:13:21.698Z,98328.78
2023-04-16T06:14:23.840Z,98334.28
2023-04-16T06:15:26.853Z,98339.81
2023-04-16T06:16:28.714Z,98338.53
2023-04-16T06:17:31.651Z,98339.78
2023-04-16T06:18:33.424Z,98338.59
2023-04-16T06:19:37.523Z,98337.03
2023-04-16T06:20:39.413Z,98339.00
2023-04-16T06:21:42.176Z,98348.66
2023-04-16T06:22:44.063Z,98335.84
2023-04-16T06:23:46.967Z,98329.88
2023-04-16T06:24:48.932Z,98334.03
2023-04-16T06:25:51.794Z,98328.88
2023-04-16T06:26:54.636Z,98338.09
2023-04-16T06:27:57.399Z,98338.28
2023-04-16T06:28:59.220Z,98341.09
2023-04-16T06:30:02.089Z,98342.19
2023-04-16T06:31:04.486Z,98342.47
2023-04-16T06:32:09.176Z,98341.13
2023-04-16T06:33:12.369Z,98346.09
2023-04-16T06:34:14.213Z,98347.47
2023-04-16T06:35:20.109Z,98348.31
2023-04-16T06:36:22.313Z,98352.69
2023-04-16T06:37:25.305Z,98354.34
2023-04-16T06:38:27.058Z,98347.19
2023-04-16T06:39:30.200Z,98355.44
2023-04-16T06:40:32.005Z,98355.88
2023-04-16T06:41:34.902Z,98349.19
2023-04-16T06:42:36.811Z,98348.34
2023-04-16T06:43:39.717Z,98352.09
2023-04-16T06:44:41.534Z,98347.97
2023-04-16T06:45:44.340Z,98341.94
2023-04-16T06:46:46.200Z,98344.59
2023-04-16T06:47:49.698Z,98344.59
2023-04-16T06:48:51.792Z,98337.69
2023-04-16T06:49:54.544Z,98334.97
2023-04-16T06:50:57.711Z,98331.38
2023-04-16T06:52:00.805Z,98330.25
2023-04-16T06:53:02.670Z,98325.41
2023-04-16T06:54:05.589Z,98324.53
2023-04-16T06:55:09.685Z,98320.72
2023-04-16T06:56:12.453Z,98329.59
2023-04-16T06:57:14.314Z,98337.94
2023-04-16T06:58:17.138Z,98327.38
2023-04-16T06:59:18.908Z,98329.59
2023-04-16T07:00:21.774Z,98330.28
2023-04-16T07:01:23.749Z,98334.84
2023-04-16T07:02:26.869Z,98337.72
2023-04-16T07:04:31.639Z,98331.84
2023-04-16T07:05:34.461Z,98333.38
2023-04-16T07:06:37.596Z,98335.22
2023-04-16T07:07:40.500Z,98338.00
2023-04-16T07:08:42.277Z,98340.28
2023-04-16T07:09:45.238Z,98341.63
2023-04-16T07:10:47.202Z,98341.47
2023-04-16T07:11:50.025Z,98347.38
2023-04-16T07:12:51.986Z,98342.38
2023-04-16T07:13:54.837Z,98350.59
2023-04-16T07:14:56.659Z,98341.69
2023-04-16T07:15:59.446Z,98356.88
2023-04-16T07:17:01.286Z,98354.94
2023-04-16T07:18:04.396Z,98350.97
2023-04-16T07:19:06.248Z,98358.59
2023-04-16T07:20:10.198Z,98355.09
2023-04-16T07:21:12.008Z,98355.41
2023-04-16T07:22:16.572Z,98352.47
2023-04-16T07:23:18.438Z,98364.94
2023-04-16T07:24:21.173Z,98360.78
2023-04-16T07:25:24.102Z,98365.13
2023-04-16T07:26:26.345Z,98363.97
2023-04-16T07:27:29.124Z,98375.28
2023-04-16T07:28:31.008Z,98373.63
2023-04-16T07:29:33.817Z,98370.34
2023-04-16T07:30:36.038Z,98369.38
2023-04-16T07:31:39.565Z,98370.16
2023-04-16T07:32:41.622Z,98359.78
2023-04-16T07:33:44.465Z,98362.00
2023-04-16T07:34:46.420Z,98361.97
2023-04-16T07:35:49.433Z,98359.91
2023-04-16T07:36:51.267Z,98364.19
2023-04-16T07:37:55.441Z,98365.72
2023-04-16T07:38:59.227Z,98371.66
2023-04-16T07:40:01.970Z,98368.28
2023-04-16T07:41:04.745Z,98362.56
2023-04-16T07:42:06.955Z,98370.31
2023-04-16T07:43:10.085Z,98371.47
2023-04-16T07:44:12.885Z,98371.97
2023-04-16T07:45:16.088Z,98370.34
2023-04-16T07:46:17.948Z,98368.22
2023-04-16T07:47:21.144Z,98374.13
2023-04-16T07:48:22.961Z,98382.00
2023-04-16T07:49:26.137Z,98377.09
2023-04-16T07:50:29.076Z,98374.81
2023-04-16T07:51:31.348Z,98378.06
2023-04-16T07:52:34.155Z,98374.47
2023-04-16T07:53:37.347Z,98379.41
2023-04-16T07:54:40.529Z,98382.38
2023-04-16T07:55:42.296Z,98374.81
2023-04-16T07:56:45.040Z,98375.84
2023-04-16T07:57:46.844Z,98374.19
2023-04-16T07:58:49.597Z,98380.94
2023-04-16T07:59:52.698Z,98374.56
2023-04-16T08:00:55.347Z,98373.72
2023-04-16T08:01:58.231Z,98382.25
2023-04-16T08:03:00.308Z,98384.06
2023-04-16T08:04:03.533Z,98384.56
2023-04-16T08:05:06.399Z,98392.44
2023-04-16T08:06:09.164Z,98388.66
2023-04-16T08:07:11.029Z,98393.25
2023-04-16T08:08:13.806Z,98386.66
2023-04-16T08:09:17.108Z,98389.28
2023-04-16T08:10:20.225Z,98394.56
2023-04-16T08:11:23.015Z,98391.28
2023-04-16T08:12:24.909Z,98397.22
2023-04-16T08:13:27.703Z,98397.88
2023-04-16T08:14:30.820Z,98398.53
2023-04-16T08:15:33.748Z,98391.47
2023-04-16T08:16:35.820Z,98398.50
2023-04-16T08:17:39.529Z,98402.13
2023-04-16T08:18:41.405Z,98399.50
2023-04-16T08:19:44.796Z,98403.63
2023-04-16T08:20:46.699Z,98398.50
2023-04-16T08:21:49.471Z,98401.31
2023-04-16T08:22:52.318Z,98403.47
2023-04-16T08:23:54.152Z,98397.53
2023-04-16T08:24:58.241Z,98396.56
2023-04-16T08:26:01.442Z,98398.03
2023-04-16T08:27:15.467Z,98402.13
2023-04-16T08:28:21.665Z,98393.88
2023-04-16T08:29:26.213Z,98403.94
2023-04-16T08:30:29.455Z,98402.44
2023-04-16T08:31:31.828Z,98403.63
2023-04-16T08:32:34.904Z,98407.69
2023-04-16T08:33:36.790Z,98404.06
2023-04-16T08:34:39.823Z,98409.84
2023-04-16T08:35:41.717Z,98402.44
2023-04-16T08:36:44.532Z,98405.22
2023-04-16T08:37:47.333Z,98407.38
2023-04-16T08:38:49.162Z,98403.09
2023-04-16T08:39:51.894Z,98407.84
2023-04-16T08:40:55.153Z,98406.72
2023-04-16T08:41:58.148Z,98412.63
2023-04-16T08:43:01.413Z,98404.06
2023-04-16T08:44:09.326Z,98402.09
2023-04-16T08:45:14.229Z,98404.41
2023-04-16T08:46:18.072Z,98402.44
2023-04-16T08:47:22.103Z,98400.78
2023-04-16T08:48:25.664Z,98395.84
2023-04-16T08:49:27.869Z,98402.91
2023-04-16T08:50:30.971Z,98405.69
2023-04-16T08:51:35.399Z,98402.22
2023-04-16T08:52:39.208Z,98405.75
2023-04-16T08:53:48.039Z,98402.94
2023-04-16T08:54:57.175Z,98403.47
2023-04-16T08:56:05.387Z,98407.22
2023-04-16T08:57:07.486Z,98399.66
2023-04-16T08:58:15.479Z,98401.53
2023-04-16T08:59:17.849Z,98408.84
2023-04-16T09:00:21.226Z,98409.66
2023-04-16T09:01:25.012Z,98415.81
2023-04-16T09:02:28.107Z,98410.72
2023-04-16T09:03:31.885Z,98416.84
2023-04-16T09:04:37.891Z,98411.00
2023-04-16T09:05:41.086Z,98411.84
2023-04-16T09:06:43.360Z,98418.31
2023-04-16T09:07:47.112Z,98405.22
2023-04-16T09:08:49.472Z,98421.16
2023-04-16T09:09:54.202Z,98415.69
2023-04-16T09:10:56.496Z,98417.50
2023-04-16T09:12:00.769Z,98421.88
2023-04-16T09:13:02.561Z,98421.97
2023-04-16T09:14:05.880Z,98422.94
2023-04-16T09:15:10.110Z,98425.16
2023-04-16T09:16:13.157Z,98421.88
2023-04-16T09:17:16.803Z,98424.03
2023-04-16T09:18:20.399Z,98429.72
2023-04-16T09:19:22.303Z,98426.78
2023-04-16T09:20:25.422Z,98424.16
2023-04-16T09:21:27.971Z,98417.63
2023-04-16T09:22:30.736Z,98421.06
2023-04-16T09:23:32.608Z,98421.59
2023-04-16T09:24:35.560Z,98419.41
2023-04-16T09:25:38.443Z,98419.09
2023-04-16T09:26:43.273Z,98417.34
2023-04-16T09:27:50.735Z,98421.31
2023-04-16T09:28:52.549Z,98419.53
2023-04-16T09:29:55.392Z,98426.94
2023-04-16T09:31:08.209Z,98419.06
2023-04-16T09:32:12.520Z,98415.13
2023-04-16T09:33:22.063Z,98423.69
2023-04-16T09:34:24.865Z,98420.75
2023-04-16T09:35:26.686Z,98430.34
2023-04-16T09:36:29.558Z,98426.06
2023-04-16T09:37:31.539Z,98429.34
2023-04-16T09:38:47.776Z,98425.72
2023-04-16T09:39:54.088Z,98426.22
2023-04-16T09:41:08.107Z,98422.78
2023-04-16T09:42:09.967Z,98434.44
2023-04-16T09:43:15.508Z,98424.41
2023-04-16T09:44:17.300Z,98420.97
2023-04-16T09:45:20.088Z,98425.91
2023-04-16T09:46:22.441Z,98421.31
2023-04-16T09:47:27.002Z,98425.09
2023-04-16T09:48:30.139Z,98423.78
2023-04-16T09:49:35.684Z,98429.03
2023-04-16T09:50:37.468Z,98425.78
2023-04-16T09:51:42.237Z,98426.09
2023-04-16T09:52:45.210Z,98418.53
2023-04-16T09:53:48.039Z,98422.63
2023-04-16T09:54:50.942Z,98422.16
2023-04-16T09:55:53.796Z,98428.75
2023-04-16T09:56:57.097Z,98426.47
2023-04-16T09:58:01.160Z,98424.81
2023-04-16T09:59:05.809Z,98431.06
2023-04-16T10:00:09.273Z,98422.81
2023-04-16T10:01:13.749Z,98433.00
2023-04-16T10:02:16.602Z,98432.69
2023-04-16T10:03:19.628Z,98431.22
2023-04-16T10:04:22.504Z,98437.41
2023-04-16T10:05:26.443Z,98429.88
2023-04-16T10:06:31.169Z,98425.63
2023-04-16T10:07:34.708Z,98429.41
2023-04-16T10:08:37.617Z,98430.72
2023-04-16T10:09:39.616Z,98430.06
2023-04-16T10:10:42.623Z,98432.69
2023-04-16T10:11:45.915Z,98431.72
2023-04-16T10:12:47.833Z,98426.28
2023-04-16T10:13:51.432Z,98425.31
2023-04-16T10:14:54.636Z,98424.63
2023-04-16T10:15:57.827Z,98428.22
2023-04-16T10:17:00.010Z,98422.47
2023-04-16T10:18:03.564Z,98428.22
2023-04-16T10:19:05.483Z,98430.34
2023-04-16T10:20:08.946Z,98437.88
2023-04-16T10:21:12.089Z,98428.31
2023-04-16T10:22:15.005Z,98433.00
2023-04-16T10:23:16.899Z,98434.78
2023-04-16T10:24:20.120Z,98436.84
2023-04-16T10:25:22.102Z,98425.88
2023-04-16T10:26:25.358Z,98415.44
2023-04-16T10:27:27.319Z,98423.94
2023-04-16T10:28:30.213Z,98422.13
2023-04-16T10:29:33.811Z,98420.16
2023-04-16T10:30:37.361Z,98424.28
2023-04-16T10:31:40.776Z,98429.94
2023-04-16T10:32:42.650Z,98422.56
2023-04-16T10:33:46.420Z,98426.16
2023-04-16T10:34:48.397Z,98433.63
2023-04-16T10:36:01.369Z,98428.81
2023-04-16T10:37:10.512Z,98422.78
2023-04-16T10:38:22.723Z,98430.84
2023-04-16T10:39:28.324Z,98434.72
2023-04-16T10:40:30.321Z,98436.63
2023-04-16T10:41:33.569Z,98435.59
2023-04-16T10:42:35.474Z,98440.63
2023-04-16T10:43:42.482Z,98441.69
2023-04-16T10:44:46.228Z,98447.47
2023-04-16T10:45:50.403Z,98446.31
2023-04-16T10:46:56.003Z,98448.31
2023-04-16T10:47:57.913Z,98447.75
2023-04-16T10:49:02.801Z,98439.09
2023-04-16T10:50:16.987Z,98447.28
2023-04-16T10:51:27.701Z,98449.09
2023-04-16T10:52:30.578Z,98444.38
2023-04-16T10:53:33.480Z,98439.91
2023-04-16T10:54:37.001Z,98441.44
2023-04-16T10:55:39.217Z,98445.91
2023-04-16T10:56:42.414Z,98448.53
2023-04-16T10:57:54.477Z,98454.63
2023-04-16T10:58:56.475Z,98446.44
2023-04-16T10:59:59.925Z,98450.63
2023-04-16T11:01:07.204Z,98453.97
2023-04-16T11:02:13.177Z,98453.03
2023-04-16T11:03:16.944Z,98453.31
2023-04-16T11:04:31.041Z,98454.28
2023-04-16T11:05:46.712Z,98455.22
2023-04-16T11:07:02.869Z,98458.59
2023-04-16T11:08:14.938Z,98447.91
2023-04-16T11:09:45.652Z,98452.69
2023-04-16T11:10:48.574Z,98453.44
2023-04-16T11:11:50.484Z,98447.81
2023-04-16T11:12:54.164Z,98448.88
2023-04-16T11:13:57.085Z,98450.19
2023-04-16T11:15:01.184Z,98456.28
2023-04-16T11:16:04.760Z,98458.69
2023-04-16T11:17:07.741Z,98458.66
2023-04-16T11:18:11.188Z,98461.03
2023-04-16T11:19:16.807Z,98459.53
2023-04-16T11:20:23.030Z,98458.38
2023-04-16T11:21:25.434Z,98467.22
2023-04-16T11:22:28.244Z,98456.56
2023-04-16T11:23:30.451Z,98457.13
2023-04-16T11:24:33.600Z,98454.31
2023-04-16T11:25:35.404Z,98456.19
2023-04-16T11:26:38.212Z,98459.03
2023-04-16T11:27:40.935Z,98461.44
2023-04-16T11:28:43.744Z,98460.44
2023-04-16T11:29:47.566Z,98467.19
2023-04-16T11:30:50.619Z,98462.78
2023-04-16T11:31:55.014Z,98463.13
2023-04-16T11:32:58.177Z,98461.13
2023-04-16T11:34:01.064Z,98467.53
2023-04-16T11:35:04.779Z,98456.63
2023-04-16T11:36:07.871Z,98455.41
2023-04-16T11:37:09.662Z,98459.06
2023-04-16T11:38:12.441Z,98462.63
2023-04-16T11:39:14.733Z,98468.63
2023-04-16T11:40:17.532Z,98456.38
2023-04-16T11:41:20.462Z,98463.22
2023-04-16T11:42:24.136Z,98462.78
2023-04-16T11:43:26.710Z,98460.41
2023-04-16T11:44:30.362Z,98456.03
2023-04-16T11:45:33.378Z,98461.63
2023-04-16T11:46:38.484Z,98459.88
2023-04-16T11:47:46.656Z,98460.63
2023-04-16T11:48:50.033Z,98462.44
2023-04-16T11:49:53.011Z,98456.16
2023-04-16T11:50:57.999Z,98457.06
2023-04-16T11:52:01.403Z,98457.31
2023-04-16T11:53:05.030Z,98460.06
2023-04-16T11:54:10.353Z,98453.22
2023-04-16T11:55:14.057Z,98454.25
2023-04-16T11:56:17.549Z,98457.50
2023-04-16T11:57:25.724Z,98457.31
2023-04-16T11:58:27.551Z,98454.66
2023-04-16T11:59:30.324Z,98455.13
2023-04-16T12:00:35.129Z,98455.94
2023-04-16T12:01:39.158Z,98457.56
2023-04-16T12:02:42.644Z,98461.31
2023-04-16T12:03:49.550Z,98458.09
2023-04-16T12:04:54.070Z,98461.56
2023-04-16T12:06:07.825Z,98461.56
2023-04-16T12:07:11.775Z,98460.75
2023-04-16T12:08:28.760Z,98460.75
2023-04-16T12:09:31.684Z,98456.66
2023-04-16T12:10:35.145Z,98457.69
2023-04-16T12:11:41.463Z,98457.69
2023-04-16T12:12:44.201Z,98454.66
2023-04-16T12:14:08.007Z,98462.22
2023-04-16T12:15:11.707Z,98457.75
2023-04-16T12:16:19.461Z,98454.81
2023-04-16T12:17:22.751Z,98453.06
2023-04-16T12:18:27.180Z,98458.25
2023-04-16T12:19:31.473Z,98454.38
2023-04-16T12:20:39.625Z,98453.94
2023-04-16T12:21:43.988Z,98457.75
2023-04-16T12:22:47.383Z,98457.81
2023-04-16T12:23:54.621Z,98457.22
2023-04-16T12:24:59.649Z,98458.72
2023-04-16T12:26:10.629Z,98450.69
2023-04-16T12:27:12.974Z,98449.50
2023-04-16T12:28:16.599Z,98444.41